createdAt,value
2022-10-11T00:01:06.388Z,12.95
2022-10-11T00:05:09.247Z,8.93
2022-10-11T00:09:11.580Z,7.40
2022-10-11T00:13:13.267Z,8.98
2022-10-11T00:17:14.917Z,5.50
2022-10-11T00:21:17.187Z,3.65
2022-10-11T00:25:19.239Z,6.10
2022-10-11T00:29:20.892Z,7.12
2022-10-11T00:33:22.653Z,5.45
2022-10-11T00:37:24.326Z,5.45
2022-10-11T00:41:26.006Z,4.05
2022-10-11T00:45:27.647Z,6.93
2022-10-11T00:49:35.009Z,9.15
2022-10-11T00:57:41.824Z,5.53
2022-10-11T01:01:43.779Z,7.32
2022-10-11T01:05:46.178Z,5.78
2022-10-11T01:09:47.853Z,7.20
2022-10-11T01:13:58.528Z,6.53
2022-10-11T01:18:35.705Z,7.35
2022-10-11T01:22:56.135Z,4.65
2022-10-11T01:27:28.084Z,6.28
2022-10-11T01:31:40.150Z,8.25
2022-10-11T01:35:48.631Z,4.75
2022-10-11T01:40:21.315Z,9.80
2022-10-11T01:44:24.886Z,6.07
2022-10-11T01:48:26.631Z,6.32
2022-10-11T01:52:33.821Z,5.60
2022-10-11T02:01:12.383Z,7.15
2022-10-11T02:05:17.094Z,9.15
2022-10-11T02:09:36.446Z,7.32
2022-10-11T02:13:40.933Z,5.47
2022-10-11T02:17:49.263Z,7.07
2022-10-11T02:21:56.729Z,7.43
2022-10-11T02:25:59.354Z,9.43
2022-10-11T02:30:02.670Z,13.73
2022-10-11T02:34:24.370Z,15.75
2022-10-11T02:38:33.976Z,12.85
2022-10-11T02:43:01.528Z,10.60
2022-10-11T02:47:04.330Z,8.00
2022-10-11T02:51:06.186Z,15.90
2022-10-11T02:55:08.556Z,10.27
2022-10-11T02:59:10.235Z,10.88
2022-10-11T03:03:12.002Z,9.68
2022-10-11T03:07:14.545Z,6.60
2022-10-11T03:11:16.258Z,10.68
2022-10-11T03:15:17.953Z,14.43
2022-10-11T03:19:19.700Z,11.77
2022-10-11T03:23:21.357Z,13.93
2022-10-11T03:27:23.042Z,14.70
2022-10-11T03:31:24.880Z,14.87
2022-10-11T03:35:26.559Z,11.23
2022-10-11T03:39:28.247Z,11.65
2022-10-11T03:43:30.043Z,12.63
2022-10-11T03:47:32.169Z,10.98
2022-10-11T03:51:33.811Z,8.93
2022-10-11T03:55:37.384Z,11.65
2022-10-11T03:59:39.145Z,11.02
2022-10-11T04:03:40.830Z,10.23
2022-10-11T04:07:42.570Z,11.63
2022-10-11T04:11:44.239Z,12.77
2022-10-11T04:15:47.037Z,10.05
2022-10-11T04:19:48.968Z,10.25
2022-10-11T04:23:50.644Z,10.85
2022-10-11T04:27:52.315Z,8.30
2022-10-11T04:31:54.002Z,14.20
2022-10-11T04:35:56.967Z,10.70
2022-10-11T04:39:58.623Z,9.43
2022-10-11T04:44:01.057Z,9.00
2022-10-11T04:48:02.739Z,16.35
2022-10-11T04:52:04.444Z,7.45
2022-10-11T04:56:10.846Z,8.13
2022-10-11T05:00:13.060Z,7.80
2022-10-11T05:04:14.799Z,6.62
2022-10-11T05:08:16.820Z,6.65
2022-10-11T05:12:18.519Z,6.53
2022-10-11T05:16:20.213Z,8.38
2022-10-11T05:20:21.868Z,7.10
2022-10-11T05:24:23.976Z,9.43
2022-10-11T05:28:26.734Z,11.85
2022-10-11T05:32:28.408Z,9.88
2022-10-11T05:36:30.048Z,11.25
2022-10-11T05:40:31.866Z,8.30
2022-10-11T05:44:33.508Z,14.10
2022-10-11T05:48:35.226Z,7.55
2022-10-11T05:52:37.111Z,8.13
2022-10-11T05:56:38.825Z,11.07
2022-10-11T06:00:41.098Z,10.00
2022-10-11T06:04:42.726Z,12.60
2022-10-11T06:08:45.203Z,12.15
2022-10-11T06:12:46.899Z,11.52
2022-10-11T06:16:48.846Z,21.98
2022-10-11T06:20:50.544Z,13.30
2022-10-11T06:24:52.280Z,13.15
2022-10-11T06:28:54.013Z,11.43
2022-10-11T06:32:55.679Z,10.20
2022-10-11T06:36:57.416Z,17.50
2022-10-11T06:41:10.100Z,13.35
2022-10-11T06:45:11.728Z,49.50
2022-10-11T06:49:13.410Z,15.20
2022-10-11T06:53:15.070Z,15.45
2022-10-11T06:57:16.787Z,15.70
2022-10-11T07:01:21.189Z,14.45
2022-10-11T07:05:22.962Z,13.70
2022-10-11T07:09:24.734Z,16.83
2022-10-11T07:13:26.392Z,17.00
2022-10-11T07:17:28.131Z,17.02
2022-10-11T07:21:31.672Z,18.37
2022-10-11T07:25:33.334Z,18.12
2022-10-11T07:29:35.112Z,16.58
2022-10-11T07:33:36.953Z,18.23
2022-10-11T07:37:38.636Z,23.02
2022-10-11T07:41:45.475Z,21.45
2022-10-11T07:49:51.930Z,20.70
2022-10-11T07:53:55.676Z,24.67
2022-10-11T07:57:57.849Z,22.08
2022-10-11T08:01:59.635Z,18.42
2022-10-11T08:06:08.066Z,20.90
2022-10-11T08:10:10.570Z,27.92
2022-10-11T08:14:12.332Z,31.45
2022-10-11T08:18:14.027Z,29.85
2022-10-11T08:22:15.668Z,37.58
2022-10-11T08:26:17.381Z,34.75
2022-10-11T08:30:19.100Z,32.60
2022-10-11T08:34:20.870Z,36.30
2022-10-11T08:38:23.096Z,33.05
2022-10-11T08:42:24.709Z,30.17
2022-10-11T08:46:31.837Z,38.47
2022-10-11T08:50:34.346Z,31.15
2022-10-11T08:54:45.252Z,25.83
2022-10-11T08:59:04.016Z,38.22
2022-10-11T09:03:27.661Z,32.08
2022-10-11T09:07:34.541Z,26.15
2022-10-11T09:12:12.550Z,25.80
2022-10-11T09:16:17.192Z,29.15
2022-10-11T09:20:43.846Z,29.17
2022-10-11T09:24:59.709Z,29.92
2022-10-11T09:29:24.656Z,24.90
2022-10-11T09:33:36.407Z,25.48
2022-10-11T09:37:50.095Z,24.35
2022-10-11T09:42:09.210Z,23.85
2022-10-11T09:46:20.515Z,27.75
2022-10-11T09:50:29.547Z,26.95
2022-10-11T09:54:43.460Z,24.92
2022-10-11T09:58:45.321Z,31.60
2022-10-11T10:02:58.055Z,34.78
2022-10-11T10:07:12.798Z,38.60
2022-10-11T10:11:14.842Z,34.67
2022-10-11T10:15:19.786Z,40.85
2022-10-11T10:19:21.850Z,42.97
2022-10-11T10:23:27.757Z,38.33
2022-10-11T10:27:30.897Z,45.60
2022-10-11T10:31:55.317Z,38.30
2022-10-11T10:36:18.370Z,39.38
2022-10-11T10:40:31.387Z,35.45
2022-10-11T10:44:33.020Z,37.63
2022-10-11T10:49:23.559Z,37.72
2022-10-11T10:53:21.432Z,39.50
2022-10-11T10:57:34.780Z,40.47
2022-10-11T11:02:06.776Z,31.23
2022-10-11T11:07:00.878Z,34.63
2022-10-11T11:11:02.487Z,32.05
2022-10-11T11:15:32.587Z,34.15
2022-10-11T11:20:03.130Z,30.00
2022-10-11T11:24:35.281Z,28.02
2022-10-11T11:29:04.810Z,32.28
2022-10-11T11:33:36.317Z,30.95
2022-10-11T11:37:41.673Z,28.65
2022-10-11T11:42:00.582Z,28.92
2022-10-11T11:46:09.514Z,24.50
2022-10-11T11:50:23.682Z,20.20
2022-10-11T11:54:49.192Z,21.67
2022-10-11T11:59:02.939Z,17.35
2022-10-11T12:03:12.401Z,27.15
2022-10-11T12:07:18.321Z,21.62
2022-10-11T12:11:27.234Z,23.70
2022-10-11T12:15:30.255Z,22.50
2022-10-11T12:19:32.070Z,17.55
2022-10-11T12:23:40.393Z,19.00
2022-10-11T12:27:47.307Z,19.40
2022-10-11T12:31:58.982Z,17.50
2022-10-11T12:36:05.871Z,21.27
2022-10-11T12:40:33.328Z,22.15
2022-10-11T12:44:35.056Z,18.48
2022-10-11T12:48:46.649Z,16.48
2022-10-11T12:53:31.487Z,18.02
2022-10-11T12:57:58.975Z,15.65
2022-10-11T13:02:00.763Z,20.58
2022-10-11T13:06:14.748Z,16.90
2022-10-11T13:10:24.091Z,19.08
2022-10-11T13:14:27.583Z,17.58
2022-10-11T13:18:29.204Z,12.13
2022-10-11T13:22:35.222Z,15.30
2022-10-11T13:26:37.669Z,16.85
2022-10-11T13:30:44.069Z,19.05
2022-10-11T13:34:48.872Z,16.80
2022-10-11T13:38:56.833Z,15.07
2022-10-11T13:42:59.460Z,18.98
2022-10-11T13:47:01.307Z,10.48
2022-10-11T13:51:05.879Z,14.80
2022-10-11T13:55:14.680Z,18.90
2022-10-11T13:59:21.133Z,21.02
2022-10-11T14:03:25.153Z,17.10
2022-10-11T14:07:28.117Z,15.73
2022-10-11T14:11:39.178Z,13.75
2022-10-11T14:15:40.844Z,14.70
2022-10-11T14:19:44.012Z,15.55
2022-10-11T14:23:54.676Z,19.77
2022-10-11T14:27:57.481Z,16.52
2022-10-11T14:32:10.654Z,15.07
2022-10-11T14:36:12.342Z,16.00
2022-10-11T14:40:18.685Z,12.82
2022-10-11T14:44:21.808Z,15.32
2022-10-11T14:48:42.881Z,13.70
2022-10-11T14:52:46.496Z,8.07
2022-10-11T14:56:49.051Z,8.98
2022-10-11T15:00:50.705Z,10.70
2022-10-11T15:04:52.374Z,10.07
2022-10-11T15:08:54.136Z,13.15
2022-10-11T15:12:56.785Z,12.90
2022-10-11T15:16:58.580Z,10.90
2022-10-11T15:21:00.528Z,7.12
2022-10-11T15:25:02.232Z,9.75
2022-10-11T15:29:04.017Z,8.45
2022-10-11T15:33:05.659Z,11.60
2022-10-11T15:37:07.330Z,9.45
2022-10-11T15:41:15.477Z,6.50
2022-10-11T15:45:18.869Z,10.88
2022-10-11T15:49:20.530Z,11.02
2022-10-11T15:53:28.605Z,10.68
2022-10-11T15:57:30.239Z,10.80
2022-10-11T16:01:31.972Z,10.25
2022-10-11T16:05:33.724Z,5.18
2022-10-11T16:09:35.377Z,8.07
2022-10-11T16:13:37.068Z,12.27
2022-10-11T16:17:38.815Z,7.05
2022-10-11T16:21:40.649Z,6.70
2022-10-11T16:25:42.424Z,14.15
2022-10-11T16:29:44.110Z,10.52
2022-10-11T16:33:46.336Z,10.02
2022-10-11T16:37:48.210Z,9.60
2022-10-11T16:41:49.959Z,45.72
2022-10-11T16:45:57.328Z,63.80
2022-10-11T16:54:01.169Z,11.00
2022-10-11T16:58:02.868Z,13.95
2022-10-11T17:02:05.628Z,7.90
2022-10-11T17:06:08.383Z,11.27
2022-10-11T17:10:10.611Z,10.23
2022-10-11T17:14:13.326Z,10.60
2022-10-11T17:18:16.244Z,9.25
2022-10-11T17:22:19.682Z,9.90
2022-10-11T17:26:26.120Z,11.68
2022-10-11T17:30:28.344Z,10.80
2022-10-11T17:34:30.011Z,8.13
2022-10-11T17:38:31.646Z,5.78
2022-10-11T17:42:33.347Z,13.30
2022-10-11T17:46:35.411Z,8.90
2022-10-11T17:50:41.129Z,14.80
2022-10-11T17:54:42.774Z,11.00
2022-10-11T17:58:45.286Z,6.62
2022-10-11T18:02:47.566Z,18.23
2022-10-11T18:06:49.643Z,13.60
2022-10-11T18:10:51.434Z,12.45
2022-10-11T18:14:53.105Z,14.35
2022-10-11T18:18:57.188Z,8.50
2022-10-11T18:22:59.384Z,13.10
2022-10-11T18:27:01.079Z,12.88
2022-10-11T18:31:17.365Z,15.02
2022-10-11T18:35:19.425Z,6.85
2022-10-11T18:39:22.022Z,10.18
2022-10-11T18:43:23.768Z,11.85
2022-10-11T18:47:25.500Z,10.95
2022-10-11T18:51:34.071Z,9.00
2022-10-11T18:55:35.719Z,7.85
2022-10-11T18:59:37.351Z,12.20
2022-10-11T19:03:39.171Z,7.85
2022-10-11T19:07:42.544Z,12.25
2022-10-11T19:11:44.488Z,10.40
2022-10-11T19:15:46.521Z,8.50
2022-10-11T19:19:49.071Z,11.27
2022-10-11T19:23:51.227Z,10.48
2022-10-11T19:27:52.864Z,7.97
2022-10-11T19:31:59.611Z,8.98
2022-10-11T19:36:03.610Z,12.48
2022-10-11T19:40:05.895Z,10.90
2022-10-11T19:44:07.608Z,11.93
2022-10-11T19:48:10.076Z,5.07
2022-10-11T19:52:13.203Z,12.90
2022-10-11T19:56:16.979Z,6.70
2022-10-11T20:00:18.809Z,5.72
2022-10-11T20:04:50.981Z,11.57
2022-10-11T20:08:44.399Z,6.82
2022-10-11T20:12:46.197Z,10.07
2022-10-11T20:16:50.464Z,12.48
2022-10-11T20:21:00.319Z,7.03
2022-10-11T20:25:02.028Z,8.52
2022-10-11T20:29:03.775Z,7.82
2022-10-11T20:33:05.430Z,8.48
2022-10-11T20:37:07.062Z,11.40
2022-10-11T20:41:11.647Z,11.12
2022-10-11T20:45:13.313Z,7.57
2022-10-11T20:49:14.999Z,10.23
2022-10-11T20:53:16.680Z,9.70
2022-10-11T20:57:18.416Z,8.52
2022-10-11T21:01:22.686Z,6.90
2022-10-11T21:05:24.395Z,10.10
2022-10-11T21:09:26.036Z,10.27
2022-10-11T21:13:28.335Z,8.75
2022-10-11T21:17:30.079Z,15.02
2022-10-11T21:21:31.779Z,14.35
2022-10-11T21:25:34.492Z,9.40
2022-10-11T21:29:36.176Z,9.95
2022-10-11T21:33:38.102Z,10.68
2022-10-11T21:37:39.798Z,16.77
2022-10-11T21:41:42.239Z,14.50
2022-10-11T21:45:44.116Z,11.82
2022-10-11T21:49:45.764Z,13.52
2022-10-11T21:53:47.459Z,9.98
2022-10-11T21:57:49.106Z,14.18
2022-10-11T22:01:50.898Z,9.77
2022-10-11T22:05:52.654Z,8.90
2022-10-11T22:09:54.347Z,12.20
2022-10-11T22:13:56.178Z,10.30
2022-10-11T22:17:57.833Z,7.80
2022-10-11T22:21:59.540Z,10.05
2022-10-11T22:26:09.435Z,8.77
2022-10-11T22:30:11.397Z,12.30
2022-10-11T22:34:13.083Z,8.25
2022-10-11T22:38:14.735Z,11.90
2022-10-11T22:42:16.435Z,8.65
2022-10-11T22:46:18.328Z,7.87
2022-10-11T22:50:19.988Z,11.02
2022-10-11T22:54:21.765Z,8.02
2022-10-11T22:58:23.449Z,7.30
2022-10-11T23:02:25.152Z,9.43
2022-10-11T23:06:26.872Z,7.82
2022-10-11T23:10:28.884Z,6.62
2022-10-11T23:14:30.546Z,9.68
2022-10-11T23:18:32.214Z,9.07
2022-10-11T23:22:33.854Z,10.75
2022-10-11T23:26:35.496Z,8.63
2022-10-11T23:30:39.953Z,6.75
2022-10-11T23:34:41.800Z,5.95
2022-10-11T23:38:43.950Z,5.90
2022-10-11T23:42:45.616Z,7.55
2022-10-11T23:46:47.692Z,8.70
2022-10-11T23:50:49.507Z,7.32
2022-10-11T23:54:51.205Z,10.18
2022-10-11T23:58:52.963Z,6.47
